createdAt,value
2019-02-21T00:00:44.009Z,12.63
2019-02-21T00:03:13.606Z,14.30
2019-02-21T00:05:42.933Z,14.03
2019-02-21T00:08:11.886Z,10.00
2019-02-21T00:10:40.991Z,11.23
2019-02-21T00:13:10.092Z,14.53
2019-02-21T00:15:39.050Z,13.50
2019-02-21T00:18:08.145Z,12.23
2019-02-21T00:20:37.150Z,13.97
2019-02-21T00:23:06.218Z,10.80
2019-02-21T00:25:35.546Z,16.77
2019-02-21T00:28:04.572Z,13.90
2019-02-21T00:30:35.494Z,12.20
2019-02-21T00:33:04.379Z,12.33
2019-02-21T00:35:33.347Z,13.37
2019-02-21T00:38:04.539Z,14.37
2019-02-21T00:40:33.833Z,14.10
2019-02-21T00:43:02.844Z,14.87
2019-02-21T00:45:31.985Z,18.73
2019-02-21T00:48:00.944Z,11.23
2019-02-21T00:50:30.077Z,11.43
2019-02-21T00:52:59.414Z,13.70
2019-02-21T00:55:28.405Z,15.43
2019-02-21T00:57:57.383Z,15.83
2019-02-21T01:00:26.406Z,12.33
2019-02-21T01:02:55.451Z,16.03
2019-02-21T01:05:24.653Z,11.77
2019-02-21T01:07:53.953Z,15.67
2019-02-21T01:10:22.975Z,13.13
2019-02-21T01:12:52.010Z,13.30
2019-02-21T01:15:21.382Z,13.30
2019-02-21T01:17:50.699Z,17.70
2019-02-21T01:20:19.659Z,14.00
2019-02-21T01:22:48.698Z,16.73
2019-02-21T01:25:17.714Z,12.93
2019-02-21T01:27:47.028Z,14.40
2019-02-21T01:30:16.363Z,15.97
2019-02-21T01:32:45.364Z,15.13
2019-02-21T01:35:14.385Z,18.07
2019-02-21T01:37:43.356Z,15.10
2019-02-21T01:40:12.376Z,16.67
2019-02-21T01:42:41.341Z,14.50
2019-02-21T01:45:10.549Z,18.37
2019-02-21T01:47:39.500Z,16.40
2019-02-21T01:50:08.888Z,15.73
2019-02-21T01:52:38.121Z,16.43
2019-02-21T01:55:09.318Z,18.13
2019-02-21T01:57:38.254Z,17.57
2019-02-21T02:00:08.485Z,17.37
2019-02-21T02:02:37.495Z,15.73
2019-02-21T02:05:06.933Z,17.00
2019-02-21T02:07:36.057Z,16.80
2019-02-21T02:10:05.325Z,16.23
2019-02-21T02:12:34.302Z,17.73
2019-02-21T02:15:03.587Z,18.80
2019-02-21T02:17:33.126Z,17.30
2019-02-21T02:20:02.203Z,17.70
2019-02-21T02:22:31.111Z,18.27
2019-02-21T02:25:00.300Z,17.00
2019-02-21T02:27:29.610Z,16.73
2019-02-21T02:29:58.817Z,17.00
2019-02-21T02:32:29.855Z,16.90
2019-02-21T02:34:59.902Z,17.03
2019-02-21T02:37:29.304Z,20.07
2019-02-21T02:39:58.305Z,22.07
2019-02-21T02:42:27.225Z,19.43
2019-02-21T02:44:56.182Z,17.80
2019-02-21T02:47:25.119Z,18.37
2019-02-21T02:49:54.167Z,19.70
2019-02-21T02:52:23.164Z,20.77
2019-02-21T02:54:52.138Z,22.00
2019-02-21T02:57:21.083Z,21.40
2019-02-21T02:59:50.120Z,21.20
2019-02-21T03:02:19.093Z,19.33
2019-02-21T03:04:48.205Z,22.13
2019-02-21T03:07:17.746Z,22.70
2019-02-21T03:09:46.705Z,23.30
2019-02-21T03:12:15.716Z,21.33
2019-02-21T03:14:44.680Z,21.87
2019-02-21T03:17:13.622Z,22.10
2019-02-21T03:19:42.637Z,20.73
2019-02-21T03:22:11.838Z,18.50
2019-02-21T03:24:42.020Z,20.57
2019-02-21T03:27:10.931Z,22.03
2019-02-21T03:29:39.911Z,20.50
2019-02-21T03:32:09.024Z,17.40
2019-02-21T03:34:37.985Z,25.00
2019-02-21T03:37:07.181Z,24.00
2019-02-21T03:39:36.146Z,19.80
2019-02-21T03:42:05.224Z,24.00
2019-02-21T03:44:34.182Z,21.17
2019-02-21T03:47:03.173Z,25.50
2019-02-21T03:49:32.213Z,23.13
2019-02-21T03:52:01.230Z,23.70
2019-02-21T03:54:30.506Z,25.10
2019-02-21T03:56:59.615Z,23.93
2019-02-21T03:59:28.728Z,24.97
2019-02-21T04:02:05.269Z,22.00
2019-02-21T04:04:28.686Z,22.87
2019-02-21T04:06:57.799Z,27.60
2019-02-21T04:09:26.984Z,25.80
2019-02-21T04:11:55.948Z,23.20
2019-02-21T04:14:25.057Z,22.57
2019-02-21T04:16:54.391Z,27.10
2019-02-21T04:19:23.379Z,30.00
2019-02-21T04:21:52.494Z,25.53
2019-02-21T04:24:21.447Z,28.80
2019-02-21T04:26:50.423Z,22.57
2019-02-21T04:29:19.443Z,25.27
2019-02-21T04:31:48.474Z,25.97
2019-02-21T04:34:17.431Z,28.13
2019-02-21T04:36:46.390Z,26.00
2019-02-21T04:39:15.398Z,28.20
2019-02-21T04:41:44.374Z,29.20
2019-02-21T04:44:13.332Z,27.40
2019-02-21T04:46:42.553Z,26.40
2019-02-21T04:49:11.610Z,27.33
2019-02-21T04:51:40.811Z,28.93
2019-02-21T04:54:09.755Z,29.90
2019-02-21T04:56:38.747Z,30.13
2019-02-21T04:59:07.937Z,26.43
2019-02-21T05:01:36.980Z,27.37
2019-02-21T05:04:05.939Z,29.07
2019-02-21T05:06:34.963Z,27.33
2019-02-21T05:09:07.395Z,32.23
2019-02-21T05:11:35.730Z,32.17
2019-02-21T05:14:04.709Z,30.73
2019-02-21T05:16:33.684Z,28.60
2019-02-21T05:19:02.722Z,28.70
2019-02-21T05:21:31.706Z,31.40
2019-02-21T05:24:00.727Z,31.03
2019-02-21T05:26:40.843Z,30.03
2019-02-21T05:29:13.694Z,31.17
2019-02-21T05:32:00.325Z,28.93
2019-02-21T05:34:39.983Z,31.90
2019-02-21T05:37:16.794Z,34.57
2019-02-21T05:39:54.830Z,28.53
2019-02-21T05:42:33.408Z,28.53
2019-02-21T05:45:13.212Z,30.20
2019-02-21T05:47:52.471Z,32.77
2019-02-21T05:50:49.363Z,32.60
2019-02-21T05:53:40.500Z,27.07
2019-02-21T05:56:15.805Z,31.40
2019-02-21T05:58:57.558Z,27.63
2019-02-21T06:01:37.367Z,28.97
2019-02-21T06:04:13.274Z,33.53
2019-02-21T06:06:49.214Z,33.50
2019-02-21T06:09:43.590Z,31.30
2019-02-21T06:12:19.050Z,29.23
2019-02-21T06:15:07.170Z,32.20
2019-02-21T06:18:05.202Z,27.83
2019-02-21T06:21:02.282Z,34.93
2019-02-21T06:23:49.382Z,33.17
2019-02-21T06:26:25.679Z,32.63
2019-02-21T06:29:17.624Z,33.93
2019-02-21T06:31:46.847Z,35.10
2019-02-21T06:34:15.806Z,32.23
2019-02-21T06:36:45.180Z,34.07
2019-02-21T06:39:14.508Z,33.20
2019-02-21T06:41:43.530Z,34.30
2019-02-21T06:44:12.527Z,32.87
2019-02-21T06:46:41.919Z,34.13
2019-02-21T06:49:11.001Z,32.60
2019-02-21T06:51:39.950Z,32.63
2019-02-21T06:54:09.197Z,34.97
2019-02-21T06:56:38.162Z,33.80
2019-02-21T06:59:07.200Z,33.47
2019-02-21T07:01:37.201Z,35.53
2019-02-21T07:04:06.187Z,35.53
2019-02-21T07:06:35.366Z,32.40
2019-02-21T07:09:05.582Z,39.80
2019-02-21T07:11:34.524Z,36.83
2019-02-21T07:14:03.918Z,35.90
2019-02-21T07:16:32.847Z,38.70
2019-02-21T07:19:01.881Z,36.63
2019-02-21T07:21:30.836Z,34.10
2019-02-21T07:23:59.827Z,36.83
2019-02-21T07:26:29.480Z,33.13
2019-02-21T07:28:58.527Z,37.80
2019-02-21T07:31:29.142Z,33.20
2019-02-21T07:33:58.050Z,39.20
2019-02-21T07:36:27.035Z,35.43
2019-02-21T07:39:08.581Z,37.37
2019-02-21T07:41:26.658Z,34.03
2019-02-21T07:43:56.435Z,31.03
2019-02-21T07:46:25.393Z,33.07
2019-02-21T07:48:54.402Z,35.33
2019-02-21T07:51:23.496Z,34.40
2019-02-21T07:53:52.527Z,34.73
2019-02-21T07:56:21.615Z,33.10
2019-02-21T07:58:50.581Z,37.67
2019-02-21T08:01:19.622Z,31.47
2019-02-21T08:03:48.878Z,34.30
2019-02-21T08:06:19.989Z,35.70
2019-02-21T08:08:49.490Z,36.00
2019-02-21T08:11:18.615Z,34.33
2019-02-21T08:13:47.608Z,36.70
2019-02-21T08:16:16.671Z,35.57
2019-02-21T08:18:45.724Z,38.80
2019-02-21T08:21:14.667Z,37.67
2019-02-21T08:23:50.571Z,36.53
2019-02-21T08:26:15.002Z,35.23
2019-02-21T08:28:43.923Z,37.17
2019-02-21T08:31:12.868Z,34.87
2019-02-21T08:33:58.294Z,34.70
2019-02-21T08:36:24.426Z,37.73
2019-02-21T08:38:53.404Z,35.57
2019-02-21T08:41:25.586Z,35.37
2019-02-21T08:43:53.532Z,35.07
2019-02-21T08:46:22.483Z,37.10
2019-02-21T08:48:51.403Z,34.97
2019-02-21T08:51:20.626Z,33.17
2019-02-21T08:53:49.559Z,35.43
2019-02-21T08:56:18.831Z,32.40
2019-02-21T08:58:48.053Z,29.53
2019-02-21T09:01:17.195Z,33.60
2019-02-21T09:03:46.601Z,36.10
2019-02-21T09:06:15.626Z,32.53
2019-02-21T09:08:44.514Z,32.20
2019-02-21T09:11:13.477Z,32.93
2019-02-21T09:13:42.534Z,36.73
2019-02-21T09:16:11.781Z,34.63
2019-02-21T09:18:40.779Z,32.40
2019-02-21T09:21:10.007Z,33.73
2019-02-21T09:23:39.024Z,32.90
2019-02-21T09:26:08.098Z,35.47
2019-02-21T09:28:37.126Z,35.03
2019-02-21T09:31:06.068Z,30.90
2019-02-21T09:33:37.142Z,34.93
2019-02-21T09:36:06.132Z,32.80
2019-02-21T09:38:35.347Z,32.00
2019-02-21T09:41:04.531Z,33.00
2019-02-21T09:43:33.600Z,30.77
2019-02-21T09:46:02.669Z,28.73
2019-02-21T09:48:31.627Z,31.40
2019-02-21T09:51:00.620Z,34.37
2019-02-21T09:53:29.631Z,31.20
2019-02-21T09:55:58.626Z,31.13
2019-02-21T09:58:27.843Z,30.47
2019-02-21T10:00:56.847Z,29.07
2019-02-21T10:03:25.907Z,32.97
2019-02-21T10:05:54.953Z,31.67
2019-02-21T10:08:24.055Z,32.93
2019-02-21T10:10:53.040Z,29.90
2019-02-21T10:13:22.007Z,30.40
2019-02-21T10:15:51.299Z,29.90
2019-02-21T10:18:20.333Z,30.67
2019-02-21T10:20:49.311Z,28.73
2019-02-21T10:23:18.390Z,29.17
2019-02-21T10:25:47.599Z,25.07
2019-02-21T10:28:16.608Z,27.80
2019-02-21T10:30:45.553Z,27.57
2019-02-21T10:33:14.767Z,26.67
2019-02-21T10:35:43.950Z,22.87
2019-02-21T10:38:13.162Z,24.83
2019-02-21T10:40:42.086Z,25.23
2019-02-21T10:43:11.054Z,29.00
2019-02-21T10:45:47.438Z,27.37
2019-02-21T10:48:10.791Z,25.70
2019-02-21T10:50:39.774Z,24.20
2019-02-21T10:53:08.734Z,27.03
2019-02-21T10:55:37.630Z,23.80
2019-02-21T10:58:06.605Z,26.10
2019-02-21T11:00:36.035Z,23.33
2019-02-21T11:03:05.071Z,28.93
2019-02-21T11:05:34.108Z,22.53
2019-02-21T11:08:03.108Z,23.53
2019-02-21T11:10:32.646Z,23.23
2019-02-21T11:13:01.651Z,24.27
2019-02-21T11:15:30.671Z,25.27
2019-02-21T11:17:59.712Z,23.43
2019-02-21T11:20:28.976Z,23.83
2019-02-21T11:22:58.024Z,20.23
2019-02-21T11:25:27.454Z,21.53
2019-02-21T11:27:56.426Z,19.67
2019-02-21T11:30:25.440Z,21.13
2019-02-21T11:32:54.461Z,19.97
2019-02-21T11:35:23.548Z,17.63
2019-02-21T11:37:52.755Z,20.63
2019-02-21T11:40:21.860Z,21.30
2019-02-21T11:42:51.127Z,18.80
2019-02-21T11:45:20.679Z,17.27
2019-02-21T11:47:49.681Z,18.50
2019-02-21T11:50:18.815Z,16.17
2019-02-21T11:52:47.806Z,18.00
2019-02-21T11:55:18.818Z,14.67
2019-02-21T11:57:47.834Z,19.27
2019-02-21T12:00:19.500Z,19.80
2019-02-21T12:02:48.446Z,14.87
2019-02-21T12:05:19.555Z,17.60
2019-02-21T12:07:48.079Z,19.83
2019-02-21T12:10:17.944Z,22.47
2019-02-21T12:12:47.094Z,15.50
2019-02-21T12:15:16.487Z,18.13
2019-02-21T12:17:45.490Z,14.80
2019-02-21T12:20:15.553Z,16.77
2019-02-21T12:22:44.566Z,18.37
2019-02-21T12:25:14.755Z,16.40
2019-02-21T12:27:43.824Z,14.70
2019-02-21T12:30:15.094Z,17.97
2019-02-21T12:32:44.042Z,17.10
2019-02-21T12:35:12.994Z,14.60
2019-02-21T12:37:42.314Z,15.83
2019-02-21T12:40:13.679Z,17.30
2019-02-21T12:42:42.568Z,21.00
2019-02-21T12:45:13.528Z,17.03
2019-02-21T12:47:50.808Z,18.23
2019-02-21T12:50:13.580Z,16.70
2019-02-21T12:52:42.527Z,22.90
2019-02-21T12:55:11.659Z,17.20
2019-02-21T12:57:40.746Z,14.30
2019-02-21T13:00:12.774Z,13.00
2019-02-21T13:02:41.798Z,14.77
2019-02-21T13:05:10.826Z,15.50
2019-02-21T13:07:39.860Z,12.47
2019-02-21T13:10:11.590Z,13.17
2019-02-21T13:12:40.534Z,16.97
2019-02-21T13:15:11.337Z,15.37
2019-02-21T13:17:40.358Z,16.43
2019-02-21T13:20:10.303Z,16.80
2019-02-21T13:22:39.246Z,15.40
2019-02-21T13:25:09.083Z,15.27
2019-02-21T13:27:38.123Z,18.40
2019-02-21T13:30:09.749Z,16.00
2019-02-21T13:32:38.939Z,15.50
2019-02-21T13:35:08.382Z,16.40
2019-02-21T13:37:37.611Z,13.57
2019-02-21T13:40:06.836Z,17.30
2019-02-21T13:42:35.800Z,11.83
2019-02-21T13:45:05.593Z,13.03
2019-02-21T13:47:34.578Z,12.87
2019-02-21T13:50:03.555Z,13.10
2019-02-21T13:52:32.537Z,12.20
2019-02-21T13:55:01.882Z,14.40
2019-02-21T13:57:31.114Z,12.07
2019-02-21T14:00:00.873Z,18.97
2019-02-21T14:02:29.966Z,11.63
2019-02-21T14:04:59.844Z,9.40
2019-02-21T14:07:29.171Z,12.27
2019-02-21T14:09:58.151Z,11.10
2019-02-21T14:12:27.403Z,13.23
2019-02-21T14:14:56.738Z,10.93
2019-02-21T14:17:25.654Z,8.87
2019-02-21T14:19:54.615Z,9.87
2019-02-21T14:22:24.047Z,12.73
2019-02-21T14:24:53.113Z,10.43
2019-02-21T14:27:22.114Z,11.67
2019-02-21T14:29:51.056Z,8.43
2019-02-21T14:32:20.042Z,9.57
2019-02-21T14:34:49.307Z,10.03
2019-02-21T14:37:18.300Z,11.10
2019-02-21T14:39:47.259Z,10.57
2019-02-21T14:42:17.124Z,10.07
2019-02-21T14:44:46.085Z,10.07
2019-02-21T14:47:15.303Z,11.27
2019-02-21T14:49:44.647Z,13.80
2019-02-21T14:52:13.750Z,12.90
2019-02-21T14:54:42.811Z,12.83
2019-02-21T14:57:11.780Z,11.50
2019-02-21T14:59:40.780Z,13.13
2019-02-21T15:02:10.090Z,11.00
2019-02-21T15:04:39.351Z,13.30
2019-02-21T15:07:08.320Z,14.73
2019-02-21T15:09:37.292Z,12.33
2019-02-21T15:12:06.540Z,11.50
2019-02-21T15:14:37.127Z,13.50
2019-02-21T15:17:06.133Z,13.43
2019-02-21T15:19:35.243Z,12.03
2019-02-21T15:22:04.461Z,14.27
2019-02-21T15:24:33.762Z,12.77
2019-02-21T15:27:08.579Z,17.40
2019-02-21T15:29:33.464Z,13.57
2019-02-21T15:32:10.794Z,18.93
2019-02-21T15:34:33.603Z,14.17
2019-02-21T15:37:03.058Z,16.20
2019-02-21T15:39:32.008Z,15.20
2019-02-21T15:42:01.308Z,17.27
2019-02-21T15:44:30.639Z,14.50
2019-02-21T15:46:59.590Z,18.50
2019-02-21T15:49:29.135Z,16.53
2019-02-21T15:51:58.202Z,16.47
2019-02-21T15:54:27.904Z,17.83
2019-02-21T15:56:57.267Z,29.17
2019-02-21T15:59:26.289Z,22.80
2019-02-21T16:01:55.597Z,25.30
2019-02-21T16:04:24.842Z,20.80
2019-02-21T16:06:53.862Z,27.00
2019-02-21T16:09:25.238Z,20.70
2019-02-21T16:11:53.375Z,24.77
2019-02-21T16:14:22.309Z,20.40
2019-02-21T16:16:51.318Z,18.57
2019-02-21T16:19:20.670Z,17.33
2019-02-21T16:21:51.377Z,18.73
2019-02-21T16:24:20.308Z,18.97
2019-02-21T16:26:49.606Z,18.43
2019-02-21T16:29:18.862Z,19.77
2019-02-21T16:31:48.089Z,20.10
2019-02-21T16:34:17.151Z,18.43
2019-02-21T16:36:46.736Z,19.50
2019-02-21T16:39:15.934Z,18.30
2019-02-21T16:41:45.976Z,19.70
2019-02-21T16:44:15.202Z,20.43
2019-02-21T16:46:44.098Z,21.13
2019-02-21T16:49:13.107Z,20.83
2019-02-21T16:51:42.119Z,22.23
2019-02-21T16:54:11.155Z,21.97
2019-02-21T16:56:40.366Z,20.50
2019-02-21T16:59:09.258Z,22.60
2019-02-21T17:01:38.190Z,21.70
2019-02-21T17:04:07.093Z,20.40
2019-02-21T17:06:36.336Z,24.73
2019-02-21T17:09:07.279Z,25.50
2019-02-21T17:11:36.237Z,21.40
2019-02-21T17:14:05.307Z,23.17
2019-02-21T17:16:34.274Z,23.97
2019-02-21T17:19:03.244Z,22.80
2019-02-21T17:21:32.288Z,22.50
2019-02-21T17:24:01.279Z,23.83
2019-02-21T17:26:31.016Z,24.50
2019-02-21T17:29:00.304Z,23.33
2019-02-21T17:31:29.739Z,23.70
2019-02-21T17:33:58.692Z,24.83
2019-02-21T17:36:27.628Z,23.50
2019-02-21T17:38:56.596Z,22.77
2019-02-21T17:41:25.602Z,24.27
2019-02-21T17:43:54.631Z,22.97
2019-02-21T17:46:23.648Z,24.20
2019-02-21T17:48:52.856Z,25.50
2019-02-21T17:51:22.188Z,22.57
2019-02-21T17:53:52.667Z,25.10
2019-02-21T17:56:22.171Z,23.90
2019-02-21T17:58:51.256Z,23.30
2019-02-21T18:01:20.214Z,23.43
2019-02-21T18:03:49.310Z,23.63
2019-02-21T18:06:18.310Z,22.73
2019-02-21T18:08:47.347Z,24.67
2019-02-21T18:11:17.561Z,23.97
2019-02-21T18:13:46.510Z,22.20
2019-02-21T18:16:15.370Z,24.37
2019-02-21T18:18:44.338Z,21.33
2019-02-21T18:21:13.359Z,22.30
2019-02-21T18:23:42.414Z,21.90
2019-02-21T18:26:17.206Z,23.70
2019-02-21T18:28:46.707Z,22.67
2019-02-21T18:31:15.691Z,21.23
2019-02-21T18:33:44.639Z,23.87
2019-02-21T18:36:13.691Z,22.23
2019-02-21T18:38:42.658Z,25.30
2019-02-21T18:41:12.298Z,23.00
2019-02-21T18:43:41.337Z,25.13
2019-02-21T18:46:10.372Z,24.67
2019-02-21T18:48:39.804Z,27.97
2019-02-21T18:51:08.763Z,27.03
2019-02-21T18:53:37.804Z,26.90
2019-02-21T18:56:07.099Z,26.00
2019-02-21T18:58:36.138Z,27.63
2019-02-21T19:01:05.534Z,28.07
2019-02-21T19:03:34.643Z,27.57
2019-02-21T19:06:03.962Z,30.73
2019-02-21T19:08:33.577Z,29.00
2019-02-21T19:11:02.588Z,28.87
2019-02-21T19:13:31.633Z,26.73
2019-02-21T19:16:00.676Z,30.00
2019-02-21T19:18:29.711Z,27.13
2019-02-21T19:20:58.794Z,25.97
2019-02-21T19:23:27.742Z,33.10
2019-02-21T19:25:56.830Z,27.93
2019-02-21T19:28:26.031Z,29.67
2019-02-21T19:31:20.033Z,33.27
2019-02-21T19:33:49.062Z,29.63
2019-02-21T19:36:18.210Z,30.73
2019-02-21T19:38:49.696Z,32.37
2019-02-21T19:41:18.731Z,37.80
2019-02-21T19:43:48.098Z,29.87
2019-02-21T19:46:17.127Z,36.53
2019-02-21T19:48:46.118Z,35.83
2019-02-21T19:51:15.491Z,36.53
2019-02-21T19:53:44.607Z,33.80
2019-02-21T19:56:13.630Z,38.03
2019-02-21T19:58:42.578Z,36.27
2019-02-21T20:01:11.617Z,36.90
2019-02-21T20:03:40.599Z,38.70
2019-02-21T20:06:09.896Z,37.20
2019-02-21T20:08:38.830Z,40.07
2019-02-21T20:11:07.930Z,43.27
2019-02-21T20:13:37.045Z,41.93
2019-02-21T20:16:06.189Z,42.60
2019-02-21T20:18:35.326Z,41.53
2019-02-21T20:21:04.359Z,39.07
2019-02-21T20:23:33.286Z,40.57
2019-02-21T20:26:03.189Z,44.33
2019-02-21T20:28:32.541Z,39.73
2019-02-21T20:31:01.573Z,43.73
2019-02-21T20:33:30.938Z,42.07
2019-02-21T20:36:00.270Z,42.33
2019-02-21T20:38:32.130Z,44.47
2019-02-21T20:41:00.095Z,45.20
2019-02-21T20:43:29.175Z,44.70
2019-02-21T20:46:00.971Z,47.20
2019-02-21T20:48:30.686Z,45.00
2019-02-21T20:51:01.673Z,43.43
2019-02-21T20:53:30.580Z,48.23
2019-02-21T20:55:59.576Z,48.57
2019-02-21T20:58:28.583Z,50.03
2019-02-21T21:00:58.390Z,49.80
2019-02-21T21:03:27.321Z,50.97
2019-02-21T21:05:57.570Z,53.00
2019-02-21T21:08:26.621Z,50.40
2019-02-21T21:10:55.562Z,57.03
2019-02-21T21:13:24.486Z,54.43
2019-02-21T21:15:53.756Z,52.90
2019-02-21T21:18:22.719Z,51.67
2019-02-21T21:20:51.722Z,49.97
2019-02-21T21:23:20.736Z,51.10
2019-02-21T21:25:49.775Z,53.43
2019-02-21T21:28:18.842Z,55.37
2019-02-21T21:30:47.893Z,53.40
2019-02-21T21:33:16.827Z,50.03
2019-02-21T21:35:45.858Z,49.93
2019-02-21T21:38:23.729Z,51.17
2019-02-21T21:40:46.792Z,50.53
2019-02-21T21:43:15.806Z,48.93
2019-02-21T21:45:44.934Z,47.63
2019-02-21T21:48:13.896Z,47.37
2019-02-21T21:50:42.876Z,48.43
2019-02-21T21:53:11.916Z,48.87
2019-02-21T21:55:40.937Z,48.33
2019-02-21T21:58:12.852Z,61.20
2019-02-21T22:00:40.836Z,66.53
2019-02-21T22:03:12.101Z,56.03
2019-02-21T22:05:41.591Z,54.13
2019-02-21T22:08:10.547Z,49.40
2019-02-21T22:10:39.578Z,58.00
2019-02-21T22:13:08.510Z,55.43
2019-02-21T22:15:37.471Z,51.97
2019-02-21T22:18:09.503Z,50.47
2019-02-21T22:20:38.709Z,53.83
2019-02-21T22:23:07.649Z,58.53
2019-02-21T22:25:37.379Z,65.27
2019-02-21T22:28:06.385Z,55.60
2019-02-21T22:30:35.577Z,51.70
2019-02-21T22:33:04.581Z,55.30
2019-02-21T22:35:33.674Z,53.70
2019-02-21T22:38:02.537Z,52.33
2019-02-21T22:40:31.757Z,52.67
2019-02-21T22:43:00.679Z,53.00
2019-02-21T22:45:29.699Z,54.17
2019-02-21T22:48:01.126Z,59.57
2019-02-21T22:50:30.211Z,55.20
2019-02-21T22:52:59.456Z,55.07
2019-02-21T22:55:28.666Z,53.63
2019-02-21T22:57:57.697Z,56.20
2019-02-21T23:01:23.954Z,55.43
2019-02-21T23:04:58.111Z,53.63
2019-02-21T23:07:53.377Z,58.63
2019-02-21T23:10:22.347Z,48.37
2019-02-21T23:12:51.416Z,50.13
2019-02-21T23:15:21.046Z,51.53
2019-02-21T23:17:50.000Z,51.40
2019-02-21T23:20:19.057Z,52.50
2019-02-21T23:22:47.999Z,48.30
2019-02-21T23:25:16.982Z,47.07
2019-02-21T23:27:45.926Z,46.53
2019-02-21T23:30:14.970Z,44.97
2019-02-21T23:32:43.868Z,48.00
2019-02-21T23:35:18.287Z,48.60
2019-02-21T23:37:47.246Z,50.07
2019-02-21T23:40:16.222Z,46.07
2019-02-21T23:42:45.111Z,46.43
2019-02-21T23:45:14.286Z,48.07
2019-02-21T23:47:49.727Z,45.80
2019-02-21T23:50:14.434Z,41.40
2019-02-21T23:52:43.493Z,38.30
2019-02-21T23:55:13.215Z,38.93
2019-02-21T23:57:42.147Z,38.10
